Chesnee, South Carolina
Current Conditions -  °F | °C
As of 11:35 AM on Wednesday 26 Nov 2014 (Local Time) from KEHO Reporting Station
Broken Clouds Broken Clouds  
Wind Chill: 43°   Ceiling: 12000
Heat Index: 47°   Visibility: 10mi
Dew Point: 42°   Wind: 7mph
Humidity: 83%   Direction: 20°NNE
Pressure: 30.02"   Gusts: NA
Location:  35.15°N, 81.86°W
Report Text: KEHO 261635Z AUTO 02006KT 10SM SCT060 BKN120 08/05 A3002 RMK AO2 T00810054
Loading
Personal Weather Stations






























Interactive Weather Map New forecast layout! Learn more

10-Day Weather Forecast

Advertisements
Track Severe Weather on mobile